Time;durP1;ratioP1;P1;durP2;ratioP2;P2;SDS_P1;SDS_P2;PMS_P1;PMS_P2;Temp;Humidity;BMP_temperature;BMP_pressure;BME280_temperature;BME280_humidity;BME280_pressure;Samples;Min_cycle;Max_cycle;Signal;HPM_P1;HPM_P2
2023/03/27 00:00:26;;;;;;;;;;;;;;;;;;5049526;28;19984;-90
2023/03/27 00:02:54;;;;;;;;;;;;;;;;;;5038267;28;19928;-90
2023/03/27 00:05:23;;;;;;;;;;;;;;;;;;5036418;28;19956;-90
2023/03/27 00:07:50;;;;;;;;;;;;;;;;;;5028855;28;19921;-90
2023/03/27 00:10:16;;;;;;;;;;;;;;;;;;5037597;28;19920;-89
2023/03/27 00:12:46;;;;;;;;;;;;;;;;;;5042149;28;19943;-90
2023/03/27 00:15:16;;;;;;;;;;;;;;;;;;5049536;28;19931;-89
2023/03/27 00:17:43;;;;;;;;;;;;;;;;;;5036810;28;19921;-90
2023/03/27 00:20:28;;;;;;;;;;;;;;;;;;5064235;28;19920;-89
2023/03/27 00:22:55;;;;;;;;;;;;;;;;;;5044914;28;20413;-90
2023/03/27 00:25:21;;;;;;;;;;;;;;;;;;5034291;28;19980;-90
2023/03/27 00:27:47;;;;;;;;;;;;;;;;;;5029758;28;20324;-90
2023/03/27 00:30:18;;;;;;;;;;;;;;;;;;5070803;28;19921;-90
2023/03/27 00:32:44;;;;;;;;;;;;;;;;;;5056587;28;19941;-90
2023/03/27 00:35:11;;;;;;;;;;;;;;;;;;5058274;28;19939;-90
2023/03/27 00:37:43;;;;;;;;;;;;;;;;;;5073967;28;20015;-90
2023/03/27 00:40:19;;;;;;;;;;;;;;;;;;5058432;28;19986;-89
2023/03/27 00:42:47;;;;;;;;;;;;;;;;;;5065963;28;19924;-89
2023/03/27 00:45:13;;;;;;;;;;;;;;;;;;5033579;28;19928;-91
2023/03/27 00:47:39;;;;;;;;;;;;;;;;;;5027916;28;19920;-90
2023/03/27 00:50:05;;;;;;;;;;;;;;;;;;5028755;28;19925;-89
2023/03/27 00:52:31;;;;;;;;;;;;;;;;;;5028240;28;19927;-89
2023/03/27 00:54:57;;;;;;;;;;;;;;;;;;5032097;28;19925;-89
2023/03/27 00:57:24;;;;;;;;;;;;;;;;;;5035207;28;20015;-89
2023/03/27 00:59:49;;;;;;;;;;;;;;;;;;5027116;28;19960;-88
2023/03/27 01:02:15;;;;;;;;;;;;;;;;;;5033360;28;19925;-88
2023/03/27 01:07:16;;;;;;;;;;;;;;;;;;5052134;28;19920;-89
2023/03/27 01:09:44;;;;;;;;;;;;;;;;;;5038881;28;19928;-89
2023/03/27 01:12:10;;;;;;;;;;;;;;;;;;5032224;28;19921;-88
2023/03/27 01:14:36;;;;;;;;;;;;;;;;;;5037417;28;19932;-88
2023/03/27 01:17:07;;;;;;;;;;;;;;;;;;5052621;28;20298;-88
2023/03/27 01:19:34;;;;;;;;;;;;;;;;;;5037629;28;19943;-89
2023/03/27 01:22:00;;;;;;;;;;;;;;;;;;5035840;28;19927;-89
2023/03/27 01:24:26;;;;;;;;;;;;;;;;;;5049431;28;19964;-87
2023/03/27 01:26:56;;;;;;;;;;;;;;;;;;5060685;28;19920;-90
2023/03/27 01:29:24;;;;;;;;;;;;;;;;;;5078578;28;19904;-90
2023/03/27 01:31:50;;;;;;;;;;;;;;;;;;5053059;28;20370;-89
2023/03/27 01:34:16;;;;;;;;;;;;;;;;;;5044740;28;19925;-90
2023/03/27 01:36:43;;;;;;;;;;;;;;;;;;5057536;28;19928;-89
2023/03/27 01:39:09;;;;;;;;;;;;;;;;;;5053774;28;19921;-89
2023/03/27 01:41:35;;;;;;;;;;;;;;;;;;5036360;28;19972;-88
2023/03/27 01:44:01;;;;;;;;;;;;;;;;;;5032367;28;19928;-89
2023/03/27 01:46:28;;;;;;;;;;;;;;;;;;5045303;28;19927;-89
2023/03/27 01:48:54;;;;;;;;;;;;;;;;;;5054657;28;19921;-88
2023/03/27 01:51:20;;;;;;;;;;;;;;;;;;5050745;28;20065;-89
2023/03/27 01:53:46;;;;;;;;;;;;;;;;;;5050041;28;19964;-88
2023/03/27 01:56:12;;;;;;;;;;;;;;;;;;5050146;28;19943;-89
2023/03/27 01:58:38;;;;;;;;;;;;;;;;;;5054281;28;19921;-88
2023/03/27 02:01:09;;;;;;;;;;;;;;;;;;5072945;28;19920;-88
2023/03/27 02:03:35;;;;;;;;;;;;;;;;;;5075965;28;19971;-90
2023/03/27 02:06:01;;;;;;;;;;;;;;;;;;5070476;28;19921;-89
2023/03/27 02:08:27;;;;;;;;;;;;;;;;;;5057978;28;19904;-89
2023/03/27 02:11:12;;;;;;;;;;;;;;;;;;5077792;28;19919;-90
2023/03/27 02:13:39;;;;;;;;;;;;;;;;;;5068337;28;19932;-89
2023/03/27 02:16:05;;;;;;;;;;;;;;;;;;5050320;28;19924;-89
2023/03/27 02:18:35;;;;;;;;;;;;;;;;;;5053119;28;19927;-89
2023/03/27 02:21:01;;;;;;;;;;;;;;;;;;5052686;28;19999;-90
2023/03/27 02:23:29;;;;;;;;;;;;;;;;;;5058996;28;19980;-90
2023/03/27 02:25:55;;;;;;;;;;;;;;;;;;5052710;28;20006;-89
2023/03/27 02:28:21;;;;;;;;;;;;;;;;;;5050055;28;19920;-90
2023/03/27 02:30:47;;;;;;;;;;;;;;;;;;5049744;28;19927;-89
2023/03/27 02:33:13;;;;;;;;;;;;;;;;;;5030709;28;19921;-90
2023/03/27 02:35:43;;;;;;;;;;;;;;;;;;5033803;28;19984;-90
2023/03/27 02:38:12;;;;;;;;;;;;;;;;;;5038327;28;19921;-88
2023/03/27 02:40:39;;;;;;;;;;;;;;;;;;5038743;28;19978;-89
2023/03/27 02:43:06;;;;;;;;;;;;;;;;;;5029469;28;20376;-89
2023/03/27 02:45:31;;;;;;;;;;;;;;;;;;5029753;28;19920;-89
2023/03/27 02:47:57;;;;;;;;;;;;;;;;;;5030774;28;19917;-89
2023/03/27 02:50:25;;;;;;;;;;;;;;;;;;5036453;28;19927;-88
2023/03/27 02:52:51;;;;;;;;;;;;;;;;;;5055575;28;19959;-89
2023/03/27 02:55:17;;;;;;;;;;;;;;;;;;5055575;28;19931;-88
2023/03/27 02:57:45;;;;;;;;;;;;;;;;;;5049454;28;19920;-88
2023/03/27 03:00:19;;;;;;;;;;;;;;;;;;5048613;28;19921;-87
2023/03/27 03:02:45;;;;;;;;;;;;;;;;;;5048895;28;20397;-88
2023/03/27 03:05:11;;;;;;;;;;;;;;;;;;5065616;28;19920;-88
2023/03/27 03:07:39;;;;;;;;;;;;;;;;;;5067110;28;20009;-89
2023/03/27 03:10:04;;;;;;;;;;;;;;;;;;5048356;28;19928;-88
2023/03/27 03:12:30;;;;;;;;;;;;;;;;;;5047931;28;19920;-89
2023/03/27 03:14:56;;;;;;;;;;;;;;;;;;5055933;28;19925;-89
2023/03/27 03:17:22;;;;;;;;;;;;;;;;;;5033812;28;20011;-89
2023/03/27 03:19:49;;;;;;;;;;;;;;;;;;5033061;28;19925;-91
2023/03/27 03:22:15;;;;;;;;;;;;;;;;;;5041205;28;19947;-91
2023/03/27 03:24:42;;;;;;;;;;;;;;;;;;5038596;28;19932;-90
2023/03/27 03:27:30;;;;;;;;;;;;;;;;;;5061638;28;19942;-90
2023/03/27 03:29:56;;;;;;;;;;;;;;;;;;5028919;28;19960;-90
2023/03/27 03:32:22;;;;;;;;;;;;;;;;;;5032150;28;19921;-90
2023/03/27 03:34:49;;;;;;;;;;;;;;;;;;5050057;28;19947;-90
2023/03/27 03:37:15;;;;;;;;;;;;;;;;;;5036935;28;19924;-90
2023/03/27 03:39:41;;;;;;;;;;;;;;;;;;5031717;28;19927;-91
2023/03/27 03:42:08;;;;;;;;;;;;;;;;;;5053938;28;19928;-91
2023/03/27 03:44:36;;;;;;;;;;;;;;;;;;5040727;28;19927;-91
2023/03/27 03:47:02;;;;;;;;;;;;;;;;;;5057528;28;20012;-91
2023/03/27 03:49:28;;;;;;;;;;;;;;;;;;5031886;28;20290;-91
2023/03/27 03:51:55;;;;;;;;;;;;;;;;;;5031444;28;19927;-90
2023/03/27 03:54:21;;;;;;;;;;;;;;;;;;5052536;28;20066;-91
2023/03/27 03:56:47;;;;;;;;;;;;;;;;;;5057585;28;19924;-91
2023/03/27 03:59:13;;;;;;;;;;;;;;;;;;5056015;28;19924;-90
2023/03/27 04:01:39;;;;;;;;;;;;;;;;;;5048977;28;20297;-90
2023/03/27 04:04:08;;;;;;;;;;;;;;;;;;5036293;28;19954;-91
2023/03/27 04:06:36;;;;;;;;;;;;;;;;;;5036040;28;19920;-89
2023/03/27 04:09:02;;;;;;;;;;;;;;;;;;5030360;28;19920;-91
2023/03/27 04:11:28;;;;;;;;;;;;;;;;;;5052239;28;19929;-89
2023/03/27 04:13:54;;;;;;;;;;;;;;;;;;5055376;28;19947;-90
2023/03/27 04:16:21;;;;;;;;;;;;;;;;;;5055296;28;20506;-90
2023/03/27 04:18:49;;;;;;;;;;;;;;;;;;5054690;28;19924;-90
2023/03/27 04:21:16;;;;;;;;;;;;;;;;;;5047632;28;19963;-90
2023/03/27 04:23:45;;;;;;;;;;;;;;;;;;5037762;28;19943;-89
2023/03/27 04:26:26;;;;;;;;;;;;;;;;;;5072002;28;19983;-89
2023/03/27 04:28:53;;;;;;;;;;;;;;;;;;5067975;28;19924;-90
2023/03/27 04:31:19;;;;;;;;;;;;;;;;;;5061535;28;19921;-90
2023/03/27 04:33:50;;;;;;;;;;;;;;;;;;5069437;28;20421;-91
2023/03/27 04:36:16;;;;;;;;;;;;;;;;;;5056429;28;19921;-90
2023/03/27 04:38:46;;;;;;;;;;;;;;;;;;5062573;28;19916;-91
2023/03/27 04:41:16;;;;;;;;;;;;;;;;;;5067687;28;19925;-90
2023/03/27 04:43:42;;;;;;;;;;;;;;;;;;5036537;28;19932;-91
2023/03/27 04:46:08;;;;;;;;;;;;;;;;;;5037755;28;19924;-90
2023/03/27 04:48:37;;;;;;;;;;;;;;;;;;5038315;28;19920;-90
2023/03/27 04:51:03;;;;;;;;;;;;;;;;;;5052170;28;19962;-91
2023/03/27 04:53:36;;;;;;;;;;;;;;;;;;5077022;28;19958;-91
2023/03/27 04:56:02;;;;;;;;;;;;;;;;;;5053604;28;19924;-90
2023/03/27 04:58:28;;;;;;;;;;;;;;;;;;5062236;28;19927;-90
2023/03/27 05:00:54;;;;;;;;;;;;;;;;;;5056224;28;19924;-91
2023/03/27 05:03:21;;;;;;;;;;;;;;;;;;5047805;28;20317;-91
2023/03/27 05:05:48;;;;;;;;;;;;;;;;;;5054045;28;19920;-91
2023/03/27 05:08:14;;;;;;;;;;;;;;;;;;5038084;28;19921;-90
2023/03/27 05:10:40;;;;;;;;;;;;;;;;;;5065777;28;19995;-91
2023/03/27 05:13:07;;;;;;;;;;;;;;;;;;5062496;28;19921;-91
2023/03/27 05:15:34;;;;;;;;;;;;;;;;;;5040907;28;19908;-92
2023/03/27 05:18:01;;;;;;;;;;;;;;;;;;5071347;28;20003;-92
2023/03/27 05:20:27;;;;;;;;;;;;;;;;;;5055748;28;19928;-91
2023/03/27 05:22:53;;;;;;;;;;;;;;;;;;5056527;28;19979;-89
2023/03/27 05:25:19;;;;;;;;;;;;;;;;;;5053393;28;19990;-90
2023/03/27 05:27:45;;;;;;;;;;;;;;;;;;5072145;28;19971;-91
2023/03/27 05:30:11;;;;;;;;;;;;;;;;;;5051977;28;19928;-90
2023/03/27 05:32:37;;;;;;;;;;;;;;;;;;5054181;28;19924;-88
2023/03/27 05:35:03;;;;;;;;;;;;;;;;;;5047609;28;20279;-90
2023/03/27 05:37:29;;;;;;;;;;;;;;;;;;5044289;28;19963;-91
2023/03/27 05:39:55;;;;;;;;;;;;;;;;;;5032900;28;19928;-90
2023/03/27 05:42:21;;;;;;;;;;;;;;;;;;5034750;28;19921;-90
2023/03/27 05:44:47;;;;;;;;;;;;;;;;;;5034290;28;19943;-90
2023/03/27 05:47:14;;;;;;;;;;;;;;;;;;5055218;28;19921;-91
2023/03/27 05:49:43;;;;;;;;;;;;;;;;;;5051402;28;19925;-89
2023/03/27 05:52:09;;;;;;;;;;;;;;;;;;5035274;28;19944;-91
2023/03/27 05:54:35;;;;;;;;;;;;;;;;;;5036305;28;19932;-89
2023/03/27 05:57:01;;;;;;;;;;;;;;;;;;5046934;28;19921;-89
2023/03/27 05:59:27;;;;;;;;;;;;;;;;;;5051564;28;19927;-90
2023/03/27 06:01:53;;;;;;;;;;;;;;;;;;5051622;28;19943;-90
2023/03/27 06:04:21;;;;;;;;;;;;;;;;;;5051250;28;19921;-90
2023/03/27 06:06:46;;;;;;;;;;;;;;;;;;5037249;28;19921;-90
2023/03/27 06:09:12;;;;;;;;;;;;;;;;;;5030909;28;19943;-91
2023/03/27 06:11:39;;;;;;;;;;;;;;;;;;5040585;28;20318;-90
2023/03/27 06:14:05;;;;;;;;;;;;;;;;;;5051620;28;19939;-91
2023/03/27 06:16:31;;;;;;;;;;;;;;;;;;5037104;28;19921;-90
2023/03/27 06:18:57;;;;;;;;;;;;;;;;;;5046231;28;19909;-91
2023/03/27 06:21:23;;;;;;;;;;;;;;;;;;5053019;28;19921;-91
2023/03/27 06:23:49;;;;;;;;;;;;;;;;;;5049958;28;20038;-91
2023/03/27 06:26:15;;;;;;;;;;;;;;;;;;5035984;28;20241;-90
2023/03/27 06:28:42;;;;;;;;;;;;;;;;;;5041455;28;19920;-90
2023/03/27 06:31:16;;;;;;;;;;;;;;;;;;5037235;28;19943;-91
2023/03/27 06:33:57;;;;;;;;;;;;;;;;;;5052254;28;20000;-91
2023/03/27 06:36:23;;;;;;;;;;;;;;;;;;5032983;28;19925;-89
2023/03/27 06:38:49;;;;;;;;;;;;;;;;;;5037161;28;19921;-91
2023/03/27 06:41:16;;;;;;;;;;;;;;;;;;5032949;28;19971;-90
2023/03/27 06:43:42;;;;;;;;;;;;;;;;;;5054283;28;19921;-90
2023/03/27 06:46:09;;;;;;;;;;;;;;;;;;5073410;28;19963;-90
2023/03/27 06:48:36;;;;;;;;;;;;;;;;;;5056577;28;19924;-91
2023/03/27 06:51:05;;;;;;;;;;;;;;;;;;5077957;28;19916;-90
2023/03/27 06:53:31;;;;;;;;;;;;;;;;;;5057917;28;19943;-89
2023/03/27 06:55:57;;;;;;;;;;;;;;;;;;5038018;28;20445;-90
2023/03/27 06:58:23;;;;;;;;;;;;;;;;;;5049386;28;20019;-90
2023/03/27 07:00:58;;;;;;;;;;;;;;;;;;5092253;28;19905;-89
2023/03/27 07:03:24;;;;;;;;;;;;;;;;;;5055087;28;20516;-90
2023/03/27 07:05:51;;;;;;;;;;;;;;;;;;5052505;28;19905;-88
2023/03/27 07:08:20;;;;;;;;;;;;;;;;;;5074143;28;19964;-87
2023/03/27 07:10:46;;;;;;;;;;;;;;;;;;5051559;28;20431;-90
2023/03/27 07:13:12;;;;;;;;;;;;;;;;;;5054696;28;19927;-91
2023/03/27 07:15:40;;;;;;;;;;;;;;;;;;5044766;28;19928;-90
2023/03/27 07:18:06;;;;;;;;;;;;;;;;;;5047531;28;19940;-90
2023/03/27 07:20:32;;;;;;;;;;;;;;;;;;5053765;28;19921;-90
2023/03/27 07:22:58;;;;;;;;;;;;;;;;;;5054879;28;19920;-90
2023/03/27 07:25:25;;;;;;;;;;;;;;;;;;5039354;28;19943;-90
2023/03/27 07:27:51;;;;;;;;;;;;;;;;;;5034847;28;19927;-90
2023/03/27 07:30:17;;;;;;;;;;;;;;;;;;5033722;28;19984;-88
2023/03/27 07:32:44;;;;;;;;;;;;;;;;;;5030994;28;19943;-90
2023/03/27 07:35:09;;;;;;;;;;;;;;;;;;5030999;28;20023;-90
2023/03/27 07:37:36;;;;;;;;;;;;;;;;;;5043620;28;20365;-90
2023/03/27 07:40:03;;;;;;;;;;;;;;;;;;5033143;28;20050;-90
2023/03/27 07:42:29;;;;;;;;;;;;;;;;;;5042142;28;19905;-89
2023/03/27 07:45:04;;;;;;;;;;;;;;;;;;5052097;28;19947;-91
2023/03/27 07:47:31;;;;;;;;;;;;;;;;;;5037448;28;19920;-88
2023/03/27 07:49:56;;;;;;;;;;;;;;;;;;5037303;28;19920;-89
2023/03/27 07:52:23;;;;;;;;;;;;;;;;;;5048264;28;20293;-88
2023/03/27 07:54:49;;;;;;;;;;;;;;;;;;5048334;28;19931;-89
2023/03/27 07:57:15;;;;;;;;;;;;;;;;;;5049423;28;19928;-89
2023/03/27 07:59:44;;;;;;;;;;;;;;;;;;5062351;28;19943;-92
2023/03/27 08:02:10;;;;;;;;;;;;;;;;;;5033691;28;19920;-93
2023/03/27 08:04:36;;;;;;;;;;;;;;;;;;5037419;28;19950;-89
2023/03/27 08:07:02;;;;;;;;;;;;;;;;;;5045197;28;19928;-89
2023/03/27 08:09:28;;;;;;;;;;;;;;;;;;5046968;28;19924;-88
2023/03/27 08:11:54;;;;;;;;;;;;;;;;;;5034018;28;19928;-86
2023/03/27 08:14:25;;;;;;;;;;;;;;;;;;5056066;28;19920;-88
2023/03/27 08:16:51;;;;;;;;;;;;;;;;;;5059747;28;19935;-87
2023/03/27 08:19:17;;;;;;;;;;;;;;;;;;5050990;28;19920;-87
2023/03/27 08:21:44;;;;;;;;;;;;;;;;;;5051509;28;19928;-87
2023/03/27 08:24:10;;;;;;;;;;;;;;;;;;5054817;28;19978;-87
2023/03/27 08:26:37;;;;;;;;;;;;;;;;;;5041651;28;20374;-88
2023/03/27 08:29:03;;;;;;;;;;;;;;;;;;5036576;28;19982;-88
2023/03/27 08:31:30;;;;;;;;;;;;;;;;;;5028818;28;19920;-87
2023/03/27 08:33:57;;;;;;;;;;;;;;;;;;5036653;28;19936;-87
2023/03/27 08:36:38;;;;;;;;;;;;;;;;;;5050040;28;19924;-88
2023/03/27 08:39:06;;;;;;;;;;;;;;;;;;5030120;28;19984;-87
2023/03/27 08:41:37;;;;;;;;;;;;;;;;;;5042272;28;19920;-87
2023/03/27 08:44:05;;;;;;;;;;;;;;;;;;5052535;28;20384;-86
2023/03/27 08:46:31;;;;;;;;;;;;;;;;;;5060034;28;19928;-86
2023/03/27 08:48:57;;;;;;;;;;;;;;;;;;5054338;28;20003;-88
2023/03/27 08:51:23;;;;;;;;;;;;;;;;;;5066423;28;19942;-87
2023/03/27 08:53:52;;;;;;;;;;;;;;;;;;5067323;28;19970;-88
2023/03/27 08:56:18;;;;;;;;;;;;;;;;;;5068098;28;19925;-87
2023/03/27 08:58:44;;;;;;;;;;;;;;;;;;5052014;28;19927;-88
2023/03/27 09:01:10;;;;;;;;;;;;;;;;;;5051973;28;20007;-88
2023/03/27 09:03:37;;;;;;;;;;;;;;;;;;5052387;28;19922;-88
2023/03/27 09:06:06;;;;;;;;;;;;;;;;;;5068298;28;19927;-89
2023/03/27 09:08:32;;;;;;;;;;;;;;;;;;5044719;28;19928;-87
2023/03/27 09:10:58;;;;;;;;;;;;;;;;;;5048943;28;19920;-87
2023/03/27 09:13:24;;;;;;;;;;;;;;;;;;5054902;28;19924;-87
2023/03/27 09:15:50;;;;;;;;;;;;;;;;;;5029198;28;19943;-88
2023/03/27 09:18:16;;;;;;;;;;;;;;;;;;5029540;28;19925;-88
2023/03/27 09:20:42;;;;;;;;;;;;;;;;;;5035474;28;19927;-88
2023/03/27 09:23:09;;;;;;;;;;;;;;;;;;5072459;28;20359;-88
2023/03/27 09:25:36;;;;;;;;;;;;;;;;;;5071681;28;19924;-89
2023/03/27 09:28:02;;;;;;;;;;;;;;;;;;5053078;28;20241;-88
2023/03/27 09:30:28;;;;;;;;;;;;;;;;;;5052687;28;19920;-88
2023/03/27 09:32:54;;;;;;;;;;;;;;;;;;5059097;28;19942;-88
2023/03/27 09:35:20;;;;;;;;;;;;;;;;;;5051888;28;19960;-87
2023/03/27 09:37:46;;;;;;;;;;;;;;;;;;5052808;28;19940;-88
2023/03/27 09:40:16;;;;;;;;;;;;;;;;;;5048776;28;19943;-86
2023/03/27 09:42:52;;;;;;;;;;;;;;;;;;5053912;28;19943;-87
2023/03/27 09:45:17;;;;;;;;;;;;;;;;;;5052466;28;19931;-86
2023/03/27 09:47:43;;;;;;;;;;;;;;;;;;5070480;28;20328;-88
2023/03/27 09:50:09;;;;;;;;;;;;;;;;;;5063985;28;19971;-87
2023/03/27 09:52:36;;;;;;;;;;;;;;;;;;5068597;28;19987;-88
2023/03/27 09:55:02;;;;;;;;;;;;;;;;;;5062511;28;19927;-88
2023/03/27 09:57:30;;;;;;;;;;;;;;;;;;5035436;28;20015;-88
2023/03/27 09:59:58;;;;;;;;;;;;;;;;;;5050651;28;19920;-89
2023/03/27 10:02:24;;;;;;;;;;;;;;;;;;5031597;28;19927;-87
2023/03/27 10:04:50;;;;;;;;;;;;;;;;;;5054593;28;19921;-87
2023/03/27 10:07:15;;;;;;;;;;;;;;;;;;5037833;28;20290;-86
2023/03/27 10:09:41;;;;;;;;;;;;;;;;;;5041350;28;19932;-88
2023/03/27 10:12:07;;;;;;;;;;;;;;;;;;5031958;28;19920;-88
2023/03/27 10:14:33;;;;;;;;;;;;;;;;;;5036084;28;20373;-88
2023/03/27 10:17:00;;;;;;;;;;;;;;;;;;5056047;28;20390;-89
2023/03/27 10:19:26;;;;;;;;;;;;;;;;;;5057834;28;19924;-87
2023/03/27 10:21:52;;;;;;;;;;;;;;;;;;5049969;28;19920;-88
2023/03/27 10:24:19;;;;;;;;;;;;;;;;;;5086360;28;19984;-87
2023/03/27 10:26:45;;;;;;;;;;;;;;;;;;5070383;28;20076;-89
2023/03/27 10:29:11;;;;;;;;;;;;;;;;;;5065482;28;19921;-88
2023/03/27 10:31:38;;;;;;;;;;;;;;;;;;5046291;28;19927;-88
2023/03/27 10:34:04;;;;;;;;;;;;;;;;;;5028671;28;19924;-88
2023/03/27 10:36:33;;;;;;;;;;;;;;;;;;5033406;28;19925;-88
2023/03/27 10:39:04;;;;;;;;;;;;;;;;;;5066742;28;19920;-87
2023/03/27 10:41:29;;;;;;;;;;;;;;;;;;5031060;28;19928;-87
2023/03/27 10:44:02;;;;;;;;;;;;;;;;;;5067322;28;19921;-88
2023/03/27 10:46:37;;;;;;;;;;;;;;;;;;5054543;28;19927;-89
2023/03/27 10:49:06;;;;;;;;;;;;;;;;;;5054875;28;19921;-87
2023/03/27 10:51:32;;;;;;;;;;;;;;;;;;5050831;28;19986;-88
2023/03/27 10:53:59;;;;;;;;;;;;;;;;;;5053583;28;19924;-88
2023/03/27 10:56:28;;;;;;;;;;;;;;;;;;5049426;28;19925;-87
2023/03/27 10:58:55;;;;;;;;;;;;;;;;;;5035733;28;19928;-88
2023/03/27 11:01:21;;;;;;;;;;;;;;;;;;5031833;28;19964;-88
2023/03/27 11:03:47;;;;;;;;;;;;;;;;;;5031358;28;19921;-87
2023/03/27 11:06:14;;;;;;;;;;;;;;;;;;5046857;28;19920;-87
2023/03/27 11:08:40;;;;;;;;;;;;;;;;;;5030886;28;19927;-88
2023/03/27 11:11:06;;;;;;;;;;;;;;;;;;5038443;28;19924;-88
2023/03/27 11:13:32;;;;;;;;;;;;;;;;;;5048807;28;20351;-86
2023/03/27 11:15:58;;;;;;;;;;;;;;;;;;5051831;28;19924;-89
2023/03/27 11:18:24;;;;;;;;;;;;;;;;;;5052063;28;19927;-87
2023/03/27 11:20:51;;;;;;;;;;;;;;;;;;5071960;28;19920;-87
2023/03/27 11:23:17;;;;;;;;;;;;;;;;;;5050774;28;19931;-88
2023/03/27 11:25:43;;;;;;;;;;;;;;;;;;5055036;28;19962;-87
2023/03/27 11:28:12;;;;;;;;;;;;;;;;;;5055943;28;19921;-88
2023/03/27 11:30:38;;;;;;;;;;;;;;;;;;5035296;28;19960;-88
2023/03/27 11:33:05;;;;;;;;;;;;;;;;;;5035192;28;19974;-86
2023/03/27 11:35:32;;;;;;;;;;;;;;;;;;5044353;28;19944;-87
2023/03/27 11:38:00;;;;;;;;;;;;;;;;;;5054444;28;20007;-87
2023/03/27 11:40:33;;;;;;;;;;;;;;;;;;5073450;28;19920;-87
2023/03/27 11:42:59;;;;;;;;;;;;;;;;;;5071054;28;19921;-88
2023/03/27 11:45:26;;;;;;;;;;;;;;;;;;5055560;28;19975;-86
2023/03/27 11:47:55;;;;;;;;;;;;;;;;;;5071106;28;19920;-87
2023/03/27 11:50:21;;;;;;;;;;;;;;;;;;5045005;28;20025;-87
2023/03/27 11:52:47;;;;;;;;;;;;;;;;;;5046314;28;19921;-86
2023/03/27 11:55:14;;;;;;;;;;;;;;;;;;5033312;28;19983;-87
2023/03/27 11:57:41;;;;;;;;;;;;;;;;;;5046607;28;19931;-88
2023/03/27 12:00:10;;;;;;;;;;;;;;;;;;5037261;28;19921;-88
2023/03/27 12:02:36;;;;;;;;;;;;;;;;;;5032592;28;19925;-87
2023/03/27 12:05:02;;;;;;;;;;;;;;;;;;5033164;28;19921;-87
2023/03/27 12:07:28;;;;;;;;;;;;;;;;;;5031736;28;20433;-86
2023/03/27 12:09:55;;;;;;;;;;;;;;;;;;5068634;28;19921;-86
2023/03/27 12:12:22;;;;;;;;;;;;;;;;;;5073315;28;19921;-87
2023/03/27 12:14:48;;;;;;;;;;;;;;;;;;5069662;28;19920;-85
2023/03/27 12:17:15;;;;;;;;;;;;;;;;;;5053944;28;19935;-87
2023/03/27 12:19:42;;;;;;;;;;;;;;;;;;5050491;28;20021;-87
2023/03/27 12:22:10;;;;;;;;;;;;;;;;;;5054407;28;19931;-86
2023/03/27 12:24:36;;;;;;;;;;;;;;;;;;5045058;28;19924;-86
2023/03/27 12:27:04;;;;;;;;;;;;;;;;;;5053992;28;19920;-88
2023/03/27 12:29:33;;;;;;;;;;;;;;;;;;5034060;28;19927;-86
2023/03/27 12:32:02;;;;;;;;;;;;;;;;;;5032955;28;19920;-89
2023/03/27 12:34:29;;;;;;;;;;;;;;;;;;5032590;28;19927;-89
2023/03/27 12:36:55;;;;;;;;;;;;;;;;;;5031483;28;19991;-89
2023/03/27 12:39:21;;;;;;;;;;;;;;;;;;5030510;28;20050;-88
2023/03/27 12:41:48;;;;;;;;;;;;;;;;;;5046241;28;20329;-87
2023/03/27 12:44:17;;;;;;;;;;;;;;;;;;5086415;28;20015;-88
2023/03/27 12:46:43;;;;;;;;;;;;;;;;;;5064322;28;20386;-87
2023/03/27 12:49:11;;;;;;;;;;;;;;;;;;5032160;28;20024;-88
2023/03/27 12:51:41;;;;;;;;;;;;;;;;;;5047465;28;19920;-87
2023/03/27 12:54:07;;;;;;;;;;;;;;;;;;5032671;28;19920;-87
2023/03/27 12:56:32;;;;;;;;;;;;;;;;;;5050472;28;19931;-88
2023/03/27 12:58:58;;;;;;;;;;;;;;;;;;5048515;28;19979;-88
2023/03/27 13:01:24;;;;;;;;;;;;;;;;;;5048281;28;20007;-87
2023/03/27 13:03:50;;;;;;;;;;;;;;;;;;5051898;28;19920;-86
2023/03/27 13:06:17;;;;;;;;;;;;;;;;;;5059069;28;19920;-87
2023/03/27 13:08:46;;;;;;;;;;;;;;;;;;5057102;28;19924;-88
2023/03/27 13:11:15;;;;;;;;;;;;;;;;;;5057462;28;19921;-87
2023/03/27 13:13:41;;;;;;;;;;;;;;;;;;5040338;28;19921;-92
2023/03/27 13:16:07;;;;;;;;;;;;;;;;;;5041006;28;19960;-94
2023/03/27 13:18:36;;;;;;;;;;;;;;;;;;5061577;28;20018;-93
2023/03/27 13:21:02;;;;;;;;;;;;;;;;;;5042617;28;19936;-95
2023/03/27 13:23:32;;;;;;;;;;;;;;;;;;5045377;28;19945;-93
2023/03/27 13:26:03;;;;;;;;;;;;;;;;;;5043897;28;19921;-92
2023/03/27 13:28:30;;;;;;;;;;;;;;;;;;5045089;28;19980;-93
2023/03/27 13:30:56;;;;;;;;;;;;;;;;;;5045826;28;19924;-94
2023/03/27 13:35:58;;;;;;;;;;;;;;;;;;5384704;22;20400;-92
2023/03/27 13:38:24;;;;;;;;;;;;;;;;;;5037134;28;19948;-93
2023/03/27 13:40:51;;;;;;;;;;;;;;;;;;5059896;28;19925;-93
2023/03/27 13:43:17;;;;;;;;;;;;;;;;;;5036095;28;19943;-93
2023/03/27 13:45:45;;;;;;;;;;;;;;;;;;5041279;28;19925;-93
2023/03/27 13:48:15;;;;;;;;;;;;;;;;;;5055304;28;19920;-92
2023/03/27 13:50:40;;;;;;;;;;;;;;;;;;5042306;28;19989;-92
2023/03/27 13:53:07;;;;;;;;;;;;;;;;;;5043004;28;19921;-93
2023/03/27 13:55:33;;;;;;;;;;;;;;;;;;5041632;28;19964;-92
2023/03/27 13:58:01;;;;;;;;;;;;;;;;;;5076650;28;19925;-93
2023/03/27 14:00:28;;;;;;;;;;;;;;;;;;5041767;28;20407;-92
2023/03/27 14:02:57;;;;;;;;;;;;;;;;;;5059371;28;19955;-92
2023/03/27 14:05:24;;;;;;;;;;;;;;;;;;5059096;28;19925;-93
2023/03/27 14:07:51;;;;;;;;;;;;;;;;;;5038283;28;19952;-93
2023/03/27 14:10:19;;;;;;;;;;;;;;;;;;5043073;28;20385;-92
2023/03/27 14:12:45;;;;;;;;;;;;;;;;;;5038624;28;19976;-93
2023/03/27 14:15:11;;;;;;;;;;;;;;;;;;5039460;28;19931;-92
2023/03/27 14:17:37;;;;;;;;;;;;;;;;;;5040394;28;19920;-93
2023/03/27 14:20:06;;;;;;;;;;;;;;;;;;5041975;28;19917;-92
2023/03/27 14:22:32;;;;;;;;;;;;;;;;;;5039987;28;19921;-94
2023/03/27 14:25:01;;;;;;;;;;;;;;;;;;5020801;28;20445;-93
2023/03/27 14:27:27;;;;;;;;;;;;;;;;;;5022315;28;19921;-92
2023/03/27 14:29:55;;;;;;;;;;;;;;;;;;5035032;28;19936;-92
2023/03/27 14:32:21;;;;;;;;;;;;;;;;;;5042065;28;19928;-93
2023/03/27 14:34:52;;;;;;;;;;;;;;;;;;5073534;28;19988;-92
2023/03/27 14:37:21;;;;;;;;;;;;;;;;;;5042947;28;19920;-93
2023/03/27 14:39:47;;;;;;;;;;;;;;;;;;5042250;28;19921;-92
2023/03/27 14:42:13;;;;;;;;;;;;;;;;;;5041811;28;19983;-93
2023/03/27 14:44:39;;;;;;;;;;;;;;;;;;5038423;28;19904;-92
2023/03/27 14:47:06;;;;;;;;;;;;;;;;;;5041148;28;19925;-93
2023/03/27 14:49:34;;;;;;;;;;;;;;;;;;5043040;28;19921;-93
2023/03/27 14:52:03;;;;;;;;;;;;;;;;;;5059496;28;19920;-93
2023/03/27 14:54:29;;;;;;;;;;;;;;;;;;5043378;28;19925;-95
2023/03/27 14:56:55;;;;;;;;;;;;;;;;;;5043482;28;19921;-94
2023/03/27 14:59:27;;;;;;;;;;;;;;;;;;5041828;28;19904;-96
2023/03/27 15:01:53;;;;;;;;;;;;;;;;;;5059996;28;19924;-95
2023/03/27 15:04:21;;;;;;;;;;;;;;;;;;5042887;28;19943;-95
2023/03/27 15:06:48;;;;;;;;;;;;;;;;;;5042763;28;19928;-94
2023/03/27 15:09:15;;;;;;;;;;;;;;;;;;5042801;28;19916;-96
2023/03/27 15:11:45;;;;;;;;;;;;;;;;;;5043971;28;19921;-95
2023/03/27 15:14:11;;;;;;;;;;;;;;;;;;5041511;28;19925;-95
2023/03/27 15:16:37;;;;;;;;;;;;;;;;;;5040385;28;19932;-93
2023/03/27 15:19:08;;;;;;;;;;;;;;;;;;5039931;28;19932;-92
2023/03/27 15:21:45;;;;;;;;;;;;;;;;;;5039712;28;19943;-96
2023/03/27 15:24:12;;;;;;;;;;;;;;;;;;5058657;28;19936;-94
2023/03/27 15:26:38;;;;;;;;;;;;;;;;;;5042411;28;19921;-94
2023/03/27 15:29:07;;;;;;;;;;;;;;;;;;5058899;28;19925;-96
2023/03/27 15:31:42;;;;;;;;;;;;;;;;;;5060521;28;19920;-95
2023/03/27 15:34:11;;;;;;;;;;;;;;;;;;5059376;28;19908;-94
2023/03/27 15:36:43;;;;;;;;;;;;;;;;;;5059561;28;19905;-93
2023/03/27 15:39:10;;;;;;;;;;;;;;;;;;5042428;28;19911;-95
2023/03/27 15:41:37;;;;;;;;;;;;;;;;;;5060185;28;19905;-96
2023/03/27 15:44:03;;;;;;;;;;;;;;;;;;5042059;28;19924;-93
2023/03/27 15:46:29;;;;;;;;;;;;;;;;;;5042971;28;20386;-94
2023/03/27 15:48:59;;;;;;;;;;;;;;;;;;5041128;28;19943;-95
2023/03/27 15:51:25;;;;;;;;;;;;;;;;;;5042668;28;19946;-96
2023/03/27 15:54:00;;;;;;;;;;;;;;;;;;5043224;28;19905;-96
2023/03/27 15:56:27;;;;;;;;;;;;;;;;;;5055148;28;19921;-94
2023/03/27 15:58:53;;;;;;;;;;;;;;;;;;5038058;28;19945;-94
2023/03/27 16:01:19;;;;;;;;;;;;;;;;;;5041609;28;19921;-95
2023/03/27 16:03:50;;;;;;;;;;;;;;;;;;5058980;28;19944;-94
2023/03/27 16:06:19;;;;;;;;;;;;;;;;;;5042482;28;19927;-95
2023/03/27 16:08:46;;;;;;;;;;;;;;;;;;5037131;28;20382;-93
2023/03/27 16:11:15;;;;;;;;;;;;;;;;;;5058980;28;19905;-95
2023/03/27 16:13:41;;;;;;;;;;;;;;;;;;5041977;28;19921;-95
2023/03/27 16:16:09;;;;;;;;;;;;;;;;;;5075679;28;19913;-95
2023/03/27 16:18:35;;;;;;;;;;;;;;;;;;5041028;28;19924;-94
2023/03/27 16:23:37;;;;;;;;;;;;;;;;;;5523577;22;19928;-94
2023/03/27 16:26:03;;;;;;;;;;;;;;;;;;5042998;28;19946;-94
2023/03/27 16:28:29;;;;;;;;;;;;;;;;;;5039488;28;19924;-96
2023/03/27 16:31:04;;;;;;;;;;;;;;;;;;5053619;28;19909;-93
2023/03/27 16:33:32;;;;;;;;;;;;;;;;;;5060630;28;19905;-93
2023/03/27 16:35:59;;;;;;;;;;;;;;;;;;5272530;23;19941;-93
2023/03/27 16:38:25;;;;;;;;;;;;;;;;;;4989095;28;19929;-91
2023/03/27 16:40:51;;;;;;;;;;;;;;;;;;4990201;28;19922;-96
2023/03/27 16:43:17;;;;;;;;;;;;;;;;;;4989902;28;19929;-96
2023/03/27 16:45:46;;;;;;;;;;;;;;;;;;5056231;23;19957;-94
2023/03/27 16:48:12;;;;;;;;;;;;;;;;;;5023581;28;19936;-95
2023/03/27 16:50:38;;;;;;;;;;;;;;;;;;5018914;28;19928;-94
2023/03/27 16:53:05;;;;;;;;;;;;;;;;;;5041118;28;19968;-94